createdAt,value
2023-04-20T05:36:33.635Z,14.75
2023-04-20T05:39:41.180Z,14.60
2023-04-20T05:42:43.961Z,13.98
2023-04-20T05:45:46.754Z,13.32
2023-04-20T05:48:49.535Z,13.90
2023-04-20T05:51:53.648Z,12.88
2023-04-20T05:54:56.486Z,12.27
2023-04-20T05:58:01.798Z,13.52
2023-04-20T06:01:04.640Z,12.98
2023-04-20T06:04:07.550Z,13.52
2023-04-20T06:07:12.601Z,12.98
2023-04-20T06:24:55.329Z,11.77
2023-04-20T06:27:57.821Z,12.80
2023-04-20T06:31:00.343Z,13.25
2023-04-20T06:34:02.912Z,14.48
2023-04-20T06:44:43.209Z,14.15
2023-04-20T06:47:45.855Z,15.05
2023-04-20T06:50:49.051Z,15.00
2023-04-20T06:53:51.671Z,13.98
2023-04-20T06:56:54.222Z,14.98
2023-04-20T06:59:58.943Z,14.20
2023-04-20T07:03:02.869Z,13.25
2023-04-20T07:06:07.658Z,12.40
2023-04-20T07:09:11.295Z,16.35
2023-04-20T07:12:15.816Z,15.38
2023-04-20T07:15:19.823Z,15.77
2023-04-20T07:18:22.357Z,15.32
2023-04-20T07:21:24.896Z,16.30
2023-04-20T07:24:29.029Z,17.20
2023-04-20T07:27:33.588Z,16.70
2023-04-20T07:30:37.728Z,17.50
2023-04-20T07:33:40.594Z,17.42
2023-04-20T07:36:43.102Z,18.60
2023-04-20T07:39:45.600Z,18.73
2023-04-20T07:42:48.108Z,18.27
2023-04-20T07:45:52.523Z,18.65
2023-04-20T07:48:55.077Z,17.25
2023-04-20T07:52:09.261Z,16.88
2023-04-20T07:55:18.022Z,17.48
2023-04-20T07:58:21.613Z,16.55
2023-04-20T08:01:26.300Z,17.23
2023-04-20T08:04:29.256Z,17.88
2023-04-20T08:07:31.921Z,16.42
2023-04-20T08:10:35.160Z,16.42
2023-04-20T08:13:37.779Z,16.65
2023-04-20T08:16:41.672Z,16.02
2023-04-20T08:19:45.990Z,16.85
2023-04-20T08:22:49.343Z,16.98
2023-04-20T08:25:51.844Z,15.73
2023-04-20T08:28:54.327Z,17.02
2023-04-20T08:31:58.435Z,16.05
2023-04-20T08:35:01.046Z,17.17
2023-04-20T08:38:03.770Z,15.75
2023-04-20T08:41:06.632Z,15.27
2023-04-20T08:44:09.542Z,16.20
2023-04-20T08:47:14.017Z,15.70
2023-04-20T08:50:17.769Z,15.20
2023-04-20T08:53:20.642Z,15.60
2023-04-20T08:56:34.739Z,17.13
2023-04-20T08:59:38.082Z,19.05
2023-04-20T09:02:51.842Z,18.98
2023-04-20T09:05:54.430Z,19.15
2023-04-20T09:08:56.959Z,17.05
2023-04-20T09:12:03.856Z,18.15
2023-04-20T09:15:07.428Z,18.13
2023-04-20T09:18:15.754Z,17.75
2023-04-20T09:21:18.250Z,17.70
2023-04-20T09:24:22.189Z,17.17
2023-04-20T09:27:26.223Z,17.77
2023-04-20T09:30:39.034Z,16.63
2023-04-20T09:33:42.975Z,17.50
2023-04-20T09:36:47.388Z,16.25
2023-04-20T09:39:50.481Z,15.75
2023-04-20T09:42:54.539Z,15.00
2023-04-20T09:45:57.540Z,16.25
2023-04-20T09:49:02.586Z,17.52
2023-04-20T09:52:06.282Z,19.10
2023-04-20T09:55:11.580Z,19.30
2023-04-20T09:58:14.592Z,20.45
2023-04-20T10:01:17.217Z,22.00
2023-04-20T10:04:22.142Z,20.00
2023-04-20T10:07:27.335Z,20.05
2023-04-20T10:10:31.081Z,19.48
2023-04-20T10:13:35.203Z,17.83
2023-04-20T10:16:37.835Z,19.38
2023-04-20T10:19:43.435Z,17.38
2023-04-20T10:22:46.396Z,18.50
2023-04-20T10:25:59.728Z,16.27
2023-04-20T10:29:02.350Z,15.82
2023-04-20T10:32:05.203Z,15.43
2023-04-20T10:35:13.932Z,14.90
2023-04-20T10:38:17.123Z,14.73
2023-04-20T10:41:20.968Z,14.02
2023-04-20T10:44:23.553Z,14.00
2023-04-20T10:47:30.986Z,14.25
2023-04-20T10:50:35.106Z,13.50
2023-04-20T10:53:37.589Z,14.23
2023-04-20T10:56:41.849Z,14.30
2023-04-20T10:59:44.369Z,14.55
2023-04-20T11:02:49.176Z,14.27
2023-04-20T11:05:53.047Z,15.00
2023-04-20T11:08:55.711Z,14.13
2023-04-20T11:12:02.801Z,15.90
2023-04-20T11:15:06.266Z,13.85
2023-04-20T11:18:09.453Z,14.93
2023-04-20T11:21:13.391Z,13.85
2023-04-20T11:24:20.126Z,13.52
2023-04-20T11:27:24.761Z,13.65
2023-04-20T11:30:27.275Z,14.00
2023-04-20T11:33:31.365Z,12.90
2023-04-20T11:36:40.524Z,13.40
2023-04-20T11:39:43.115Z,13.60
2023-04-20T11:42:46.331Z,12.88
2023-04-20T11:45:49.285Z,12.23
2023-04-20T11:48:51.848Z,12.43
2023-04-20T11:51:56.159Z,11.15
2023-04-20T11:54:58.701Z,10.70
2023-04-20T11:58:01.222Z,11.25
2023-04-20T12:01:05.373Z,9.20
2023-04-20T12:04:08.643Z,9.82
2023-04-20T12:07:12.764Z,8.90
2023-04-20T12:10:15.234Z,8.93
2023-04-20T12:13:17.812Z,9.27
2023-04-20T12:16:20.344Z,8.82
2023-04-20T12:19:23.296Z,8.95
2023-04-20T12:22:27.464Z,8.85
2023-04-20T12:25:30.058Z,8.43
2023-04-20T12:28:33.107Z,9.52
2023-04-20T12:31:36.373Z,8.68
2023-04-20T12:34:39.134Z,8.52
2023-04-20T12:37:43.029Z,9.60
2023-04-20T12:40:45.622Z,8.35
2023-04-20T12:43:48.121Z,8.20
2023-04-20T12:46:50.752Z,8.43
2023-04-20T12:49:54.103Z,8.32
2023-04-20T12:52:58.512Z,7.90
2023-04-20T12:56:01.614Z,8.25
2023-04-20T12:59:04.439Z,8.45
2023-04-20T13:02:07.381Z,8.63
2023-04-20T13:05:10.974Z,7.82
2023-04-20T13:08:14.865Z,7.97
2023-04-20T13:11:18.010Z,7.53
2023-04-20T13:14:20.795Z,6.80
2023-04-20T13:17:25.884Z,6.53
2023-04-20T13:20:29.820Z,7.38
2023-04-20T13:23:33.763Z,7.22
2023-04-20T13:26:36.697Z,6.90
2023-04-20T13:29:40.042Z,7.03
2023-04-20T13:32:43.000Z,5.85
2023-04-20T13:35:45.560Z,5.25
2023-04-20T13:38:49.893Z,6.07
2023-04-20T13:41:52.396Z,5.45
2023-04-20T13:44:54.957Z,5.45
2023-04-20T13:47:58.166Z,5.30
2023-04-20T13:51:00.733Z,4.70
2023-04-20T13:54:04.706Z,5.25
2023-04-20T13:57:07.214Z,4.20
2023-04-20T14:00:11.007Z,4.65
2023-04-20T14:03:14.285Z,5.20
2023-04-20T14:06:16.960Z,4.75
2023-04-20T14:09:21.376Z,5.15
2023-04-20T14:12:24.175Z,4.68
2023-04-20T14:15:27.228Z,5.45
2023-04-20T14:18:29.711Z,4.47
2023-04-20T14:21:32.860Z,4.32
2023-04-20T14:24:36.689Z,4.90
2023-04-20T14:27:39.203Z,4.68
2023-04-20T14:30:41.921Z,4.53
2023-04-20T14:33:44.823Z,4.53
2023-04-20T14:36:47.341Z,4.50
2023-04-20T14:39:51.258Z,4.40
2023-04-20T14:42:54.040Z,4.75
2023-04-20T14:45:58.684Z,4.68
2023-04-20T14:49:01.373Z,4.13
2023-04-20T14:52:04.248Z,4.35
2023-04-20T14:55:09.254Z,4.07
2023-04-20T14:58:11.823Z,4.30
2023-04-20T15:01:14.757Z,4.18
2023-04-20T15:04:17.567Z,4.55
2023-04-20T15:07:20.360Z,4.50
2023-04-20T15:10:24.542Z,5.45
2023-04-20T15:13:27.194Z,4.45
2023-04-20T15:16:29.877Z,4.70
2023-04-20T15:19:32.477Z,5.28
2023-04-20T15:22:35.216Z,4.57
2023-04-20T15:25:39.192Z,4.43
2023-04-20T15:28:41.760Z,4.93
2023-04-20T15:31:45.571Z,5.55
2023-04-20T15:34:48.177Z,4.88
2023-04-20T15:37:50.750Z,4.55
2023-04-20T15:40:55.420Z,3.85
2023-04-20T15:43:57.931Z,4.30
2023-04-20T15:47:01.739Z,4.20
2023-04-20T15:50:04.510Z,4.70
2023-04-20T15:53:07.338Z,4.43
2023-04-20T15:56:12.013Z,3.83
2023-04-20T15:59:14.528Z,3.95
2023-04-20T16:02:17.349Z,4.25
2023-04-20T16:05:19.935Z,4.53
2023-04-20T16:08:22.493Z,4.18
2023-04-20T16:11:26.390Z,3.63
2023-04-20T16:14:29.013Z,3.58
2023-04-20T16:17:31.624Z,3.53
2023-04-20T16:20:34.170Z,3.83
2023-04-20T16:23:36.695Z,3.80
2023-04-20T16:26:41.309Z,4.03
2023-04-20T16:29:43.874Z,3.90
2023-04-20T16:32:46.654Z,3.97
2023-04-20T16:35:49.215Z,4.07
2023-04-20T16:38:51.676Z,3.63
2023-04-20T16:41:56.928Z,4.30
2023-04-20T16:44:59.514Z,4.43
2023-04-20T16:48:02.412Z,4.53
2023-04-20T16:51:05.202Z,3.63
2023-04-20T16:54:08.094Z,3.78
2023-04-20T16:57:11.910Z,3.80
2023-04-20T17:00:15.569Z,3.78
2023-04-20T17:03:18.240Z,3.90
2023-04-20T17:06:21.239Z,4.20
2023-04-20T17:09:24.105Z,4.35
2023-04-20T17:12:27.933Z,3.60
2023-04-20T17:15:30.446Z,3.60
2023-04-20T17:18:34.262Z,4.10
2023-04-20T17:21:36.804Z,3.75
2023-04-20T17:24:39.310Z,3.33
2023-04-20T17:27:43.283Z,3.50
2023-04-20T17:30:45.960Z,3.72
2023-04-20T17:33:48.509Z,4.05
2023-04-20T17:36:50.961Z,3.80
2023-04-20T17:39:53.492Z,4.05
2023-04-20T17:42:57.303Z,3.50
2023-04-20T17:46:00.766Z,5.03
2023-04-20T17:49:03.299Z,4.65
2023-04-20T17:52:06.269Z,4.13
2023-04-20T17:55:09.552Z,3.45
2023-04-20T17:58:13.832Z,3.55
2023-04-20T18:01:16.629Z,4.20
2023-04-20T18:04:19.442Z,3.35
2023-04-20T18:07:22.194Z,3.95
2023-04-20T18:10:24.696Z,3.92
2023-04-20T18:13:28.860Z,3.88
2023-04-20T18:16:31.350Z,3.65
2023-04-20T18:19:33.820Z,3.85
2023-04-20T18:22:36.649Z,4.30
2023-04-20T18:25:39.206Z,4.50
2023-04-20T18:28:43.073Z,4.05
2023-04-20T18:31:46.480Z,4.68
2023-04-20T18:34:49.122Z,4.90
2023-04-20T18:37:53.617Z,5.60
2023-04-20T18:40:56.210Z,5.40
2023-04-20T18:44:01.285Z,4.55
2023-04-20T18:47:03.897Z,5.25
2023-04-20T18:50:07.599Z,5.57
2023-04-20T18:53:10.154Z,6.28
2023-04-20T18:56:12.709Z,5.40
2023-04-20T18:59:16.517Z,4.88
2023-04-20T19:02:20.242Z,4.88
2023-04-20T19:05:23.327Z,5.03
2023-04-20T19:08:26.207Z,4.75
2023-04-20T19:11:28.950Z,4.28
2023-04-20T19:14:32.752Z,4.65
2023-04-20T19:17:36.047Z,4.68
2023-04-20T19:20:38.853Z,6.85
2023-04-20T19:23:41.761Z,5.90
2023-04-20T19:26:44.302Z,5.45
2023-04-20T19:29:48.131Z,5.25
2023-04-20T19:32:50.610Z,5.72
2023-04-20T19:35:53.568Z,5.07
2023-04-20T19:38:56.303Z,5.60
2023-04-20T19:41:58.821Z,5.72
2023-04-20T19:45:03.714Z,5.85
2023-04-20T19:48:06.719Z,6.38
2023-04-20T19:51:10.461Z,4.70
2023-04-20T19:54:16.528Z,5.40
2023-04-20T19:57:19.044Z,5.88
2023-04-20T20:00:22.987Z,6.18
2023-04-20T20:03:27.347Z,6.22
2023-04-20T20:06:30.105Z,6.50
2023-04-20T20:09:32.585Z,5.68
2023-04-20T20:31:08.964Z,6.13
